createdAt,value
2018-08-11T00:01:54.913Z,21.38
2018-08-11T00:09:24.183Z,21.38
2018-08-11T00:11:54.191Z,21.45
2018-08-11T00:14:24.335Z,21.39
2018-08-11T00:16:54.387Z,21.42
2018-08-11T00:19:24.445Z,21.53
2018-08-11T00:21:54.490Z,21.46
2018-08-11T00:24:24.495Z,21.41
2018-08-11T00:26:54.731Z,21.47
2018-08-11T00:29:24.726Z,21.42
2018-08-11T00:31:54.608Z,21.43
2018-08-11T00:34:24.600Z,21.47
2018-08-11T00:36:54.721Z,21.41
2018-08-11T00:39:24.670Z,21.34
2018-08-11T00:41:54.722Z,21.40
2018-08-11T00:44:24.787Z,21.39
2018-08-11T00:46:54.951Z,21.28
2018-08-11T00:49:25.172Z,21.37
2018-08-11T00:51:55.150Z,21.30
2018-08-11T00:54:25.220Z,21.16
2018-08-11T00:56:55.096Z,21.24
2018-08-11T00:59:25.752Z,21.28
2018-08-11T01:01:56.103Z,21.22
2018-08-11T01:04:26.457Z,21.14
2018-08-11T01:06:56.681Z,21.26
2018-08-11T01:09:26.878Z,21.07
2018-08-11T01:11:57.066Z,20.57
2018-08-11T01:14:27.148Z,20.25
2018-08-11T01:16:57.224Z,20.09
2018-08-11T01:19:27.231Z,19.79
2018-08-11T01:21:57.457Z,19.61
2018-08-11T01:24:27.540Z,19.40
2018-08-11T01:26:57.607Z,18.84
2018-08-11T01:29:27.678Z,18.29
2018-08-11T01:31:57.593Z,18.21
2018-08-11T01:34:27.661Z,18.23
2018-08-11T01:36:57.428Z,18.33
2018-08-11T01:39:27.593Z,18.19
2018-08-11T01:41:57.381Z,18.06
2018-08-11T01:44:27.421Z,17.73
2018-08-11T01:46:57.151Z,17.58
2018-08-11T01:49:27.257Z,17.53
2018-08-11T01:51:57.104Z,17.53
2018-08-11T01:54:27.479Z,17.42
2018-08-11T01:56:57.216Z,17.20
2018-08-11T01:59:27.255Z,17.17
2018-08-11T02:01:57.947Z,17.22
2018-08-11T02:04:29.028Z,17.29
2018-08-11T02:07:00.139Z,17.47
2018-08-11T02:09:30.666Z,17.40
2018-08-11T02:12:00.681Z,17.19
2018-08-11T02:14:30.636Z,17.26
2018-08-11T02:17:00.993Z,17.11
2018-08-11T02:19:31.193Z,17.37
2018-08-11T02:22:01.028Z,17.72
2018-08-11T02:24:30.873Z,17.94
2018-08-11T02:27:00.621Z,18.13
2018-08-11T02:29:30.622Z,18.17
2018-08-11T02:32:00.647Z,18.14
2018-08-11T02:34:32.782Z,18.39
2018-08-11T02:37:02.668Z,18.41
2018-08-11T02:39:32.567Z,18.45
2018-08-11T02:42:02.593Z,18.42
2018-08-11T02:44:32.881Z,18.41
2018-08-11T02:47:02.726Z,18.36
2018-08-11T02:49:32.676Z,18.31
2018-08-11T02:52:02.421Z,18.38
2018-08-11T02:54:32.410Z,18.26
2018-08-11T02:57:02.317Z,18.29
2018-08-11T02:59:32.370Z,18.39
2018-08-11T03:02:02.402Z,18.32
2018-08-11T03:04:32.503Z,18.32
2018-08-11T03:07:02.430Z,18.27
2018-08-11T03:09:32.333Z,18.24
2018-08-11T03:12:02.211Z,18.18
2018-08-11T03:14:32.068Z,18.12
2018-08-11T03:17:03.092Z,18.15
2018-08-11T03:19:34.109Z,18.26
2018-08-11T03:22:04.156Z,18.25
2018-08-11T03:24:34.213Z,18.28
2018-08-11T03:27:04.205Z,18.34
2018-08-11T03:29:34.233Z,18.25
2018-08-11T03:32:04.142Z,18.25
2018-08-11T03:34:34.262Z,18.25
2018-08-11T03:37:04.187Z,18.27
2018-08-11T03:39:34.108Z,18.21
2018-08-11T03:42:04.119Z,18.12
2018-08-11T03:44:34.150Z,18.13
2018-08-11T03:47:04.033Z,18.14
2018-08-11T03:49:33.960Z,18.10
2018-08-11T03:52:04.037Z,17.97
2018-08-11T03:54:33.872Z,18.02
2018-08-11T03:57:06.541Z,18.03
2018-08-11T03:59:36.803Z,18.12
2018-08-11T04:02:06.921Z,18.14
2018-08-11T04:04:36.813Z,18.12
2018-08-11T04:07:06.948Z,18.06
2018-08-11T04:09:37.078Z,18.13
2018-08-11T04:12:06.802Z,18.13
2018-08-11T04:14:36.651Z,18.05
2018-08-11T04:17:06.603Z,18.02
2018-08-11T04:19:36.361Z,17.87
2018-08-11T04:22:06.696Z,17.85
2018-08-11T04:24:36.553Z,17.95
2018-08-11T04:27:07.172Z,17.87
2018-08-11T04:29:37.001Z,17.91
2018-08-11T04:32:07.162Z,17.88
2018-08-11T04:34:36.918Z,17.82
2018-08-11T04:37:07.151Z,17.90
2018-08-11T04:39:37.196Z,17.97
2018-08-11T04:42:07.233Z,17.98
2018-08-11T04:44:36.946Z,17.98
2018-08-11T04:47:06.887Z,17.91
2018-08-11T04:49:36.806Z,17.94
2018-08-11T04:52:06.746Z,17.90
2018-08-11T04:54:36.703Z,17.99
2018-08-11T04:57:06.652Z,18.05
2018-08-11T04:59:36.599Z,18.00
2018-08-11T05:02:07.024Z,18.01
2018-08-11T05:04:37.204Z,17.89
2018-08-11T05:07:07.516Z,17.85
2018-08-11T05:09:37.273Z,17.96
2018-08-11T05:12:07.118Z,17.88
2018-08-11T05:14:37.033Z,17.90
2018-08-11T05:17:06.764Z,17.95
2018-08-11T05:19:36.638Z,17.95
2018-08-11T05:22:06.733Z,18.00
2018-08-11T05:24:37.781Z,17.95
2018-08-11T05:27:07.793Z,17.94
2018-08-11T05:29:37.713Z,17.84
2018-08-11T05:32:07.858Z,17.85
2018-08-11T05:34:37.776Z,17.85
2018-08-11T05:37:08.062Z,17.86
2018-08-11T05:39:37.729Z,17.89
2018-08-11T05:42:08.557Z,17.99
2018-08-11T05:44:38.772Z,17.96
2018-08-11T05:47:08.833Z,17.70
2018-08-11T05:49:38.662Z,17.69
2018-08-11T05:52:08.663Z,17.76
2018-08-11T05:54:38.541Z,17.58
2018-08-11T05:57:08.514Z,17.68
2018-08-11T05:59:38.382Z,17.88
2018-08-11T06:02:09.044Z,17.99
2018-08-11T06:04:38.836Z,17.85
2018-08-11T06:07:08.862Z,17.70
2018-08-11T06:09:38.899Z,17.64
2018-08-11T06:12:08.683Z,17.88
2018-08-11T06:14:38.801Z,17.98
2018-08-11T06:17:08.778Z,17.85
2018-08-11T06:19:38.880Z,17.83
2018-08-11T06:22:09.032Z,17.79
2018-08-11T06:24:38.980Z,17.90
2018-08-11T06:27:08.721Z,17.95
2018-08-11T06:29:39.027Z,18.12
2018-08-11T06:32:09.945Z,18.13
2018-08-11T06:34:39.861Z,18.02
2018-08-11T06:37:09.838Z,17.99
2018-08-11T06:39:39.834Z,17.93
2018-08-11T06:42:10.633Z,17.68
2018-08-11T06:44:40.741Z,17.76
2018-08-11T06:47:10.761Z,17.70
2018-08-11T06:49:41.719Z,17.69
2018-08-11T06:52:11.834Z,17.88
2018-08-11T06:54:41.867Z,17.95
2018-08-11T06:57:12.023Z,17.93
2018-08-11T06:59:42.527Z,18.19
2018-08-11T07:02:12.754Z,18.21
2018-08-11T07:04:42.692Z,18.85
2018-08-11T07:07:12.652Z,19.44
2018-08-11T07:09:42.664Z,20.31
2018-08-11T07:12:12.749Z,20.60
2018-08-11T07:14:42.753Z,20.36
2018-08-11T07:17:12.567Z,20.10
2018-08-11T07:19:42.581Z,19.87
2018-08-11T07:22:12.742Z,19.63
2018-08-11T07:24:42.814Z,19.91
2018-08-11T07:27:12.602Z,19.76
2018-08-11T07:29:42.633Z,19.45
2018-08-11T07:32:13.015Z,19.25
2018-08-11T07:34:44.094Z,19.33
2018-08-11T07:37:13.991Z,20.05
2018-08-11T07:39:44.041Z,20.24
2018-08-11T07:42:13.952Z,20.68
2018-08-11T07:44:43.998Z,20.42
2018-08-11T07:47:13.933Z,20.47
2018-08-11T07:49:44.126Z,20.90
2018-08-11T07:52:14.176Z,20.45
2018-08-11T07:54:44.108Z,20.79
2018-08-11T07:57:13.859Z,20.97
2018-08-11T07:59:43.626Z,20.27
2018-08-11T08:02:13.431Z,20.27
2018-08-11T08:04:43.375Z,19.98
2018-08-11T08:07:13.234Z,20.13
2018-08-11T08:09:43.497Z,19.77
2018-08-11T08:12:13.310Z,19.37
2018-08-11T08:14:43.229Z,19.16
2018-08-11T08:17:13.355Z,19.57
2018-08-11T08:19:43.378Z,19.27
2018-08-11T08:22:13.423Z,18.94
2018-08-11T08:24:43.379Z,18.59
2018-08-11T08:27:13.209Z,18.73
2018-08-11T08:29:43.298Z,19.26
2018-08-11T08:32:13.521Z,19.58
2018-08-11T08:34:43.654Z,19.57
2018-08-11T08:37:13.934Z,19.50
2018-08-11T08:39:43.930Z,19.63
2018-08-11T08:42:13.954Z,19.24
2018-08-11T08:44:44.033Z,19.39
2018-08-11T08:47:14.002Z,19.78
2018-08-11T08:49:43.996Z,19.79
2018-08-11T08:52:13.959Z,19.71
2018-08-11T08:54:43.998Z,20.06
2018-08-11T08:57:13.846Z,19.97
2018-08-11T08:59:44.046Z,20.00
2018-08-11T09:02:14.051Z,19.64
2018-08-11T09:04:44.028Z,19.62
2018-08-11T09:07:14.165Z,19.94
2018-08-11T09:09:44.358Z,19.78
2018-08-11T09:12:14.374Z,19.62
2018-08-11T09:14:44.193Z,19.79
2018-08-11T09:17:14.025Z,19.94
2018-08-11T09:19:43.797Z,19.56
2018-08-11T09:22:13.778Z,19.61
2018-08-11T09:24:43.894Z,19.90
2018-08-11T09:27:13.645Z,20.23
2018-08-11T09:29:43.719Z,20.32
2018-08-11T09:32:13.469Z,20.26
2018-08-11T09:34:43.282Z,20.25
2018-08-11T09:37:13.394Z,20.32
2018-08-11T09:39:43.373Z,20.30
2018-08-11T09:42:16.288Z,20.40
2018-08-11T09:44:46.328Z,20.16
2018-08-11T09:47:16.097Z,20.02
2018-08-11T09:49:45.914Z,20.27
2018-08-11T09:52:15.830Z,20.46
2018-08-11T09:54:45.665Z,20.68
2018-08-11T09:57:15.814Z,20.94
2018-08-11T09:59:45.680Z,21.17
2018-08-11T10:02:16.745Z,20.97
2018-08-11T10:04:46.762Z,20.85
2018-08-11T10:07:16.639Z,20.87
2018-08-11T10:09:46.798Z,20.67
2018-08-11T10:12:16.879Z,20.74
2018-08-11T10:14:46.764Z,20.84
2018-08-11T10:17:16.907Z,20.71
2018-08-11T10:19:46.842Z,20.65
2018-08-11T10:22:16.885Z,21.03
2018-08-11T10:24:53.531Z,20.98
2018-08-11T10:27:23.754Z,20.88
2018-08-11T10:29:53.630Z,21.15
2018-08-11T10:32:23.615Z,21.29
2018-08-11T10:34:53.642Z,21.47
2018-08-11T10:37:23.680Z,21.62
2018-08-11T10:39:53.669Z,21.96
2018-08-11T10:42:23.523Z,22.30
2018-08-11T10:44:53.388Z,22.05
2018-08-11T10:47:23.387Z,21.69
2018-08-11T10:49:53.543Z,21.69
2018-08-11T10:52:23.441Z,21.38
2018-08-11T10:54:53.563Z,21.46
2018-08-11T10:57:23.594Z,21.41
2018-08-11T10:59:53.528Z,21.57
2018-08-11T11:02:24.453Z,21.71
2018-08-11T11:09:47.375Z,21.99
2018-08-11T11:12:17.410Z,22.06
2018-08-11T11:14:47.397Z,22.18
2018-08-11T11:17:17.391Z,22.21
2018-08-11T11:19:47.646Z,22.10
2018-08-11T11:22:17.443Z,22.59
2018-08-11T11:24:47.249Z,22.47
2018-08-11T11:27:17.120Z,22.25
2018-08-11T11:29:47.204Z,21.95
2018-08-11T11:32:17.033Z,21.92
2018-08-11T11:34:46.960Z,22.43
2018-08-11T11:37:16.942Z,22.44
2018-08-11T11:39:46.871Z,22.55
2018-08-11T11:42:17.649Z,22.87
2018-08-11T11:49:40.244Z,21.73
2018-08-11T11:52:10.366Z,22.17
2018-08-11T11:54:40.548Z,22.37
2018-08-11T11:57:10.752Z,22.71
2018-08-11T11:59:40.620Z,22.82
2018-08-11T12:02:10.863Z,22.71
2018-08-11T12:04:40.863Z,22.83
2018-08-11T12:07:10.671Z,23.06
2018-08-11T12:09:40.580Z,23.19
2018-08-11T12:12:10.678Z,22.80
2018-08-11T12:14:40.713Z,22.23
2018-08-11T12:17:10.715Z,22.12
2018-08-11T12:19:40.880Z,22.23
2018-08-11T12:22:10.713Z,22.38
2018-08-11T12:24:40.854Z,22.17
2018-08-11T12:27:10.627Z,22.29
2018-08-11T12:29:40.422Z,22.30
2018-08-11T12:32:10.360Z,22.19
2018-08-11T12:34:40.373Z,22.31
2018-08-11T12:37:10.779Z,22.30
2018-08-11T12:39:40.768Z,22.57
2018-08-11T12:42:11.072Z,22.67
2018-08-11T12:44:41.409Z,22.46
2018-08-11T12:47:11.576Z,22.82
2018-08-11T12:49:41.613Z,22.99
2018-08-11T12:52:11.533Z,23.30
2018-08-11T12:54:41.552Z,23.12
2018-08-11T12:57:11.547Z,23.37
2018-08-11T12:59:41.638Z,23.41
2018-08-11T13:02:11.786Z,23.69
2018-08-11T13:04:41.663Z,23.62
2018-08-11T13:07:11.686Z,23.84
2018-08-11T13:09:41.745Z,24.25
2018-08-11T13:12:14.695Z,24.41
2018-08-11T13:14:44.861Z,24.07
2018-08-11T13:17:15.029Z,23.99
2018-08-11T13:19:45.114Z,23.93
2018-08-11T13:22:15.108Z,24.09
2018-08-11T13:24:48.005Z,24.32
2018-08-11T13:27:18.124Z,24.70
2018-08-11T13:29:48.051Z,24.04
2018-08-11T13:32:17.894Z,23.70
2018-08-11T13:34:47.804Z,23.37
2018-08-11T13:37:17.745Z,23.09
2018-08-11T13:39:50.296Z,22.79
2018-08-11T13:42:20.708Z,22.74
2018-08-11T13:44:50.465Z,22.78
2018-08-11T13:47:21.421Z,23.13
2018-08-11T13:49:52.664Z,23.05
2018-08-11T13:52:22.560Z,22.74
2018-08-11T13:54:52.596Z,22.74
2018-08-11T13:57:22.664Z,22.77
2018-08-11T13:59:52.595Z,23.09
2018-08-11T14:02:22.791Z,23.17
2018-08-11T14:04:52.994Z,23.07
2018-08-11T14:07:23.223Z,23.18
2018-08-11T14:09:53.225Z,23.59
2018-08-11T14:12:23.313Z,23.95
2018-08-11T14:14:53.624Z,23.76
2018-08-11T14:17:23.750Z,23.42
2018-08-11T14:19:53.541Z,23.42
2018-08-11T14:22:23.551Z,23.44
2018-08-11T14:24:53.539Z,23.82
2018-08-11T14:27:23.657Z,24.20
2018-08-11T14:29:53.653Z,24.57
2018-08-11T14:32:23.684Z,24.62
2018-08-11T14:34:53.831Z,24.69
2018-08-11T14:37:23.875Z,24.96
2018-08-11T14:39:53.743Z,24.82
2018-08-11T14:42:26.699Z,25.00
2018-08-11T14:44:56.710Z,25.19
2018-08-11T14:47:26.670Z,25.19
2018-08-11T14:49:56.763Z,25.34
2018-08-11T14:52:26.881Z,25.52
2018-08-11T14:54:57.207Z,25.69
2018-08-11T14:57:27.138Z,25.60
2018-08-11T14:59:57.161Z,25.42
2018-08-11T15:02:27.562Z,25.20
2018-08-11T15:04:58.608Z,25.23
2018-08-11T15:07:29.546Z,25.35
2018-08-11T15:09:59.338Z,25.01
2018-08-11T15:12:29.289Z,25.08
2018-08-11T15:14:59.269Z,25.21
2018-08-11T15:17:29.358Z,24.51
2018-08-11T15:19:59.305Z,24.80
2018-08-11T15:22:29.294Z,25.17
2018-08-11T15:24:59.279Z,25.28
2018-08-11T15:27:29.222Z,25.31
2018-08-11T15:30:01.127Z,25.35
2018-08-11T15:32:31.656Z,25.02
2018-08-11T15:35:01.692Z,25.11
2018-08-11T15:37:31.651Z,25.27
2018-08-11T15:40:01.922Z,25.85
2018-08-11T15:42:31.974Z,26.17
2018-08-11T15:45:02.309Z,26.52
2018-08-11T15:47:32.502Z,26.65
2018-08-11T15:50:02.597Z,25.93
2018-08-11T15:52:32.777Z,25.25
2018-08-11T15:55:02.888Z,25.06
2018-08-11T15:57:33.007Z,25.70
2018-08-11T16:00:02.995Z,25.56
2018-08-11T16:02:33.256Z,24.98
2018-08-11T16:05:03.149Z,24.57
2018-08-11T16:07:33.159Z,24.81
2018-08-11T16:10:03.465Z,26.15
2018-08-11T16:12:33.617Z,27.71
2018-08-11T16:15:03.930Z,28.89
2018-08-11T16:17:34.740Z,28.81
2018-08-11T16:20:05.876Z,28.04
2018-08-11T16:22:36.044Z,27.06
2018-08-11T16:25:05.975Z,25.79
2018-08-11T16:27:36.062Z,24.92
2018-08-11T16:30:08.627Z,24.13
2018-08-11T16:32:38.571Z,23.89
2018-08-11T16:35:08.850Z,23.80
2018-08-11T16:37:39.268Z,23.86
2018-08-11T16:40:09.707Z,24.58
2018-08-11T16:42:39.827Z,26.03
2018-08-11T16:45:09.637Z,27.14
2018-08-11T16:47:39.724Z,27.63
2018-08-11T16:50:09.800Z,28.76
2018-08-11T16:52:39.841Z,29.38
2018-08-11T16:55:10.080Z,29.79
2018-08-11T16:57:40.204Z,29.67
2018-08-11T17:00:13.052Z,29.33
2018-08-11T17:02:43.804Z,28.12
2018-08-11T17:05:14.181Z,28.32
2018-08-11T17:07:44.105Z,28.99
2018-08-11T17:10:14.201Z,29.71
2018-08-11T17:12:44.337Z,29.80
2018-08-11T17:15:14.355Z,30.06
2018-08-11T17:17:44.492Z,30.05
2018-08-11T17:20:15.177Z,30.03
2018-08-11T17:22:45.230Z,29.03
2018-08-11T17:25:14.971Z,28.80
2018-08-11T17:27:44.931Z,27.71
2018-08-11T17:30:14.779Z,27.51
2018-08-11T17:32:44.853Z,26.99
2018-08-11T17:35:16.835Z,26.65
2018-08-11T17:37:46.958Z,26.36
2018-08-11T17:40:16.991Z,26.52
2018-08-11T17:42:47.013Z,26.44
2018-08-11T17:45:17.186Z,25.55
2018-08-11T17:47:47.214Z,24.93
2018-08-11T17:50:17.339Z,24.09
2018-08-11T17:52:47.680Z,23.66
2018-08-11T17:55:17.797Z,23.56
2018-08-11T17:57:47.858Z,23.56
2018-08-11T18:00:18.140Z,23.37
2018-08-11T18:02:48.281Z,23.33
2018-08-11T18:05:18.338Z,23.23
2018-08-11T18:07:47.902Z,23.16
2018-08-11T18:10:18.215Z,23.14
2018-08-11T18:12:48.788Z,23.21
2018-08-11T18:15:18.880Z,23.10
2018-08-11T18:17:49.029Z,23.12
2018-08-11T18:20:19.618Z,23.14
2018-08-11T18:22:49.660Z,23.21
2018-08-11T18:25:19.845Z,23.12
2018-08-11T18:27:50.086Z,23.05
2018-08-11T18:30:20.278Z,22.98
2018-08-11T18:32:50.441Z,22.90
2018-08-11T18:35:20.516Z,22.88
2018-08-11T18:37:50.861Z,22.89
2018-08-11T18:40:21.195Z,22.68
2018-08-11T18:42:51.580Z,22.67
2018-08-11T18:45:21.745Z,22.51
2018-08-11T18:47:51.825Z,22.31
2018-08-11T18:50:21.942Z,22.37
2018-08-11T18:52:52.217Z,22.35
2018-08-11T18:55:22.521Z,22.23
2018-08-11T18:57:52.914Z,22.15
2018-08-11T19:00:23.368Z,21.97
2018-08-11T19:02:53.614Z,21.96
2018-08-11T19:05:23.940Z,22.04
2018-08-11T19:07:53.909Z,22.06
2018-08-11T19:10:24.170Z,22.21
2018-08-11T19:12:54.503Z,22.21
2018-08-11T19:15:24.881Z,22.14
2018-08-11T19:17:55.097Z,22.15
2018-08-11T19:20:25.238Z,22.17
2018-08-11T19:22:55.332Z,22.24
2018-08-11T19:25:25.676Z,22.32
2018-08-11T19:27:55.942Z,22.38
2018-08-11T19:30:26.185Z,22.44
2018-08-11T19:32:56.375Z,22.47
2018-08-11T19:35:26.795Z,22.47
2018-08-11T19:37:57.065Z,22.42
2018-08-11T19:40:27.313Z,22.36
2018-08-11T19:42:57.750Z,22.36
2018-08-11T19:45:27.972Z,22.33
2018-08-11T19:47:58.200Z,22.23
2018-08-11T19:50:28.156Z,22.17
2018-08-11T19:52:58.342Z,22.08
2018-08-11T19:55:28.617Z,22.03
2018-08-11T19:57:58.822Z,22.00
2018-08-11T20:00:35.881Z,21.97
2018-08-11T20:03:06.251Z,21.95
2018-08-11T20:05:36.762Z,21.91
2018-08-11T20:08:07.172Z,21.88
2018-08-11T20:10:37.455Z,21.86
2018-08-11T20:13:07.581Z,21.85
2018-08-11T20:15:37.950Z,21.78
2018-08-11T20:18:08.042Z,21.65
2018-08-11T20:20:38.114Z,21.72
2018-08-11T20:23:08.081Z,21.52
2018-08-11T20:25:38.143Z,21.53
2018-08-11T20:28:08.494Z,21.47
2018-08-11T20:31:09.393Z,21.37
2018-08-11T20:33:40.554Z,21.08
2018-08-11T20:36:11.595Z,21.30
2018-08-11T20:38:41.691Z,21.28
2018-08-11T20:41:11.781Z,21.30
2018-08-11T20:43:41.865Z,21.21
2018-08-11T20:46:12.135Z,21.21
2018-08-11T20:48:42.347Z,21.13
2018-08-11T20:51:12.641Z,21.09
2018-08-11T20:53:42.776Z,21.03
2018-08-11T20:56:13.077Z,20.97
2018-08-11T20:58:43.375Z,20.95
2018-08-11T21:01:13.496Z,20.95
2018-08-11T21:03:43.683Z,20.95
2018-08-11T21:06:13.802Z,20.96
2018-08-11T21:08:44.039Z,20.92
2018-08-11T21:11:14.359Z,20.91
2018-08-11T21:13:44.399Z,20.92
2018-08-11T21:16:14.661Z,20.84
2018-08-11T21:18:44.883Z,20.74
2018-08-11T21:21:14.937Z,20.66
2018-08-11T21:23:44.902Z,20.57
2018-08-11T21:26:15.168Z,20.50
2018-08-11T21:28:52.027Z,20.46
2018-08-11T21:31:22.309Z,20.46
2018-08-11T21:33:52.404Z,20.45
2018-08-11T21:36:22.687Z,20.39
2018-08-11T21:38:52.783Z,20.38
2018-08-11T21:41:26.766Z,20.37
2018-08-11T21:43:56.940Z,20.38
2018-08-11T21:46:27.041Z,20.36
2018-08-11T21:48:57.105Z,20.37
2018-08-11T21:51:27.229Z,20.38
2018-08-11T21:53:57.370Z,20.38
2018-08-11T21:56:27.492Z,20.38
2018-08-11T21:58:57.665Z,20.32
2018-08-11T22:01:31.896Z,20.23
2018-08-11T22:04:02.105Z,20.16
2018-08-11T22:06:31.966Z,20.14
2018-08-11T22:09:01.786Z,20.10
2018-08-11T22:11:31.822Z,20.05
2018-08-11T22:14:01.755Z,19.98
2018-08-11T22:16:31.726Z,19.94
2018-08-11T22:19:01.897Z,19.98
2018-08-11T22:21:32.082Z,19.99
2018-08-11T22:24:02.406Z,19.98
2018-08-11T22:26:32.442Z,19.96
2018-08-11T22:29:02.341Z,19.96
2018-08-11T22:31:32.331Z,19.84
2018-08-11T22:34:02.393Z,19.78
2018-08-11T22:36:32.339Z,19.77
2018-08-11T22:39:02.495Z,19.77
2018-08-11T22:41:32.622Z,19.72
2018-08-11T22:44:02.856Z,19.72
2018-08-11T22:46:32.976Z,19.76
2018-08-11T22:49:03.550Z,19.73
2018-08-11T22:51:33.721Z,19.74
2018-08-11T22:54:03.852Z,19.76
2018-08-11T22:56:33.909Z,19.75
2018-08-11T22:59:04.070Z,19.71
2018-08-11T23:01:33.962Z,19.65
2018-08-11T23:04:04.207Z,19.54
2018-08-11T23:06:34.172Z,19.56
2018-08-11T23:09:05.610Z,19.49
2018-08-11T23:11:35.496Z,19.43
2018-08-11T23:14:05.641Z,19.42
2018-08-11T23:16:35.638Z,19.40
2018-08-11T23:19:05.837Z,19.38
2018-08-11T23:21:36.307Z,19.34
2018-08-11T23:24:06.518Z,19.37
2018-08-11T23:26:39.687Z,19.39
2018-08-11T23:29:10.367Z,19.32
2018-08-11T23:31:41.412Z,19.29
2018-08-11T23:34:11.498Z,19.27
2018-08-11T23:36:41.417Z,19.28
2018-08-11T23:39:12.360Z,19.29
2018-08-11T23:41:42.361Z,19.16
2018-08-11T23:44:12.487Z,19.10
2018-08-11T23:46:42.525Z,19.05
2018-08-11T23:49:12.658Z,18.97
2018-08-11T23:51:42.587Z,18.99
2018-08-11T23:54:12.552Z,18.89
2018-08-11T23:56:42.425Z,18.99
2018-08-11T23:59:12.548Z,18.94
